Time;durP1;ratioP1;P1;durP2;ratioP2;P2;SDS_P1;SDS_P2;PMS_P1;PMS_P2;Temp;Humidity;BMP_temperature;BMP_pressure;BME280_temperature;BME280_humidity;BME280_pressure;Samples;Min_cycle;Max_cycle;Signal;HPM_P1;HPM_P2
2021/08/20 00:00:12;;;;;;;15.27;11.65;;;14.90;99.90;;;;;;4973420;28;20023;-76
2021/08/20 00:02:38;;;;;;;15.25;11.60;;;14.90;99.90;;;;;;4973427;28;20387;-75
2021/08/20 00:05:05;;;;;;;13.77;12.15;;;14.90;99.90;;;;;;4972730;28;20025;-76
2021/08/20 00:07:31;;;;;;;14.43;12.95;;;14.90;99.90;;;;;;4973441;28;20034;-76
2021/08/20 00:09:58;;;;;;;16.08;12.70;;;14.90;99.90;;;;;;4973469;28;20027;-76
2021/08/20 00:12:24;;;;;;;15.82;12.32;;;14.90;99.90;;;;;;4972612;28;20026;-76
2021/08/20 00:14:50;;;;;;;14.73;13.20;;;14.90;99.90;;;;;;4973398;28;20038;-76
2021/08/20 00:17:16;;;;;;;15.90;12.65;;;15.20;99.90;;;;;;4972875;28;20030;-76
2021/08/20 00:19:41;;;;;;;16.88;12.63;;;14.90;99.90;;;;;;4973288;28;20027;-76
2021/08/20 00:22:08;;;;;;;14.45;12.48;;;14.90;99.90;;;;;;4973398;28;20041;-75
2021/08/20 00:24:34;;;;;;;14.60;12.45;;;14.90;99.90;;;;;;4972906;28;20084;-76
2021/08/20 00:27:00;;;;;;;17.15;12.60;;;14.90;99.90;;;;;;4973217;28;20391;-76
2021/08/20 00:29:26;;;;;;;23.30;14.93;;;14.90;99.90;;;;;;4973215;28;20046;-76
2021/08/20 00:31:51;;;;;;;16.60;12.98;;;14.90;99.90;;;;;;4972661;28;20027;-75
2021/08/20 00:34:17;;;;;;;21.05;14.18;;;14.90;99.90;;;;;;4973340;28;20332;-75
2021/08/20 00:36:43;;;;;;;21.85;13.75;;;14.90;99.90;;;;;;4972874;28;20053;-75
2021/08/20 00:39:08;;;;;;;21.58;14.63;;;14.80;99.90;;;;;;4972433;28;20035;-75
2021/08/20 00:41:34;;;;;;;15.18;13.07;;;14.80;99.90;;;;;;4972890;28;20082;-76
2021/08/20 00:44:00;;;;;;;16.38;13.32;;;14.80;99.90;;;;;;4973278;28;20398;-76
2021/08/20 00:46:27;;;;;;;15.05;13.15;;;14.80;99.90;;;;;;4972297;28;20491;-76
2021/08/20 00:48:52;;;;;;;17.65;13.55;;;14.80;99.90;;;;;;4973350;28;20419;-76
2021/08/20 00:51:24;;;;;;;19.48;13.85;;;14.80;99.90;;;;;;4973255;28;20026;-75
2021/08/20 00:53:49;;;;;;;19.55;14.30;;;14.70;99.90;;;;;;4972447;28;20027;-77
2021/08/20 00:56:16;;;;;;;18.20;13.75;;;14.70;99.90;;;;;;4972920;28;20022;-75
2021/08/20 00:58:42;;;;;;;15.55;13.13;;;14.70;99.90;;;;;;4972954;28;20030;-77
2021/08/20 01:01:08;;;;;;;18.48;14.05;;;14.70;99.90;;;;;;4972582;28;20031;-78
2021/08/20 01:03:35;;;;;;;21.83;13.63;;;14.70;99.90;;;;;;4972793;28;20097;-77
2021/08/20 01:06:02;;;;;;;20.77;12.95;;;14.70;99.90;;;;;;4973089;28;20019;-76
2021/08/20 01:08:30;;;;;;;16.05;13.00;;;14.70;99.90;;;;;;4971763;28;20053;-77
2021/08/20 01:10:57;;;;;;;20.25;14.02;;;14.70;99.90;;;;;;4972932;28;20026;-77
2021/08/20 01:13:24;;;;;;;15.40;13.75;;;14.70;99.90;;;;;;4972418;28;20463;-76
2021/08/20 01:15:52;;;;;;;18.92;13.60;;;14.70;99.90;;;;;;4972723;28;20034;-76
2021/08/20 01:18:24;;;;;;;22.08;14.68;;;14.70;99.90;;;;;;4972910;28;20029;-77
2021/08/20 01:20:50;;;;;;;17.33;13.95;;;14.60;99.90;;;;;;4971736;28;20415;-76
2021/08/20 01:23:21;;;;;;;15.88;13.57;;;14.70;99.90;;;;;;4972763;28;20050;-77
2021/08/20 01:25:46;;;;;;;16.10;13.73;;;14.70;99.90;;;;;;4972765;28;20540;-76
2021/08/20 01:28:12;;;;;;;20.13;15.27;;;14.70;99.90;;;;;;4972306;28;20495;-76
2021/08/20 01:30:37;;;;;;;16.38;14.40;;;14.70;99.90;;;;;;4972206;28;20046;-77
2021/08/20 01:33:03;;;;;;;25.08;15.05;;;14.70;99.90;;;;;;4972787;28;20031;-77
2021/08/20 01:35:29;;;;;;;20.50;15.48;;;14.70;99.90;;;;;;4971761;28;20027;-77
2021/08/20 01:37:55;;;;;;;21.90;14.75;;;14.70;99.90;;;;;;4972485;28;20030;-76
2021/08/20 01:40:20;;;;;;;22.65;16.10;;;14.80;99.90;;;;;;4972992;28;20114;-77
2021/08/20 01:42:46;;;;;;;21.23;16.83;;;14.80;99.90;;;;;;4971704;28;20035;-77
2021/08/20 01:45:12;;;;;;;22.25;16.38;;;14.80;99.90;;;;;;4974709;28;20023;-77
2021/08/20 01:47:37;;;;;;;20.23;16.55;;;14.90;99.90;;;;;;4975751;28;20522;-77
2021/08/20 01:50:08;;;;;;;24.23;18.00;;;14.80;99.90;;;;;;4975528;28;20150;-76
2021/08/20 01:52:34;;;;;;;;;;;14.90;99.90;;;;;;4977597;28;20035;-77
2021/08/20 01:55:02;;;;;;;23.08;16.58;;;14.90;99.90;;;;;;4969535;28;20382;-76
2021/08/20 01:57:27;;;;;;;24.25;17.70;;;14.80;99.90;;;;;;4974906;28;20026;-76
2021/08/20 01:59:53;;;;;;;23.65;17.48;;;14.90;99.90;;;;;;4975874;28;20105;-76
2021/08/20 02:02:20;;;;;;;25.20;19.13;;;14.90;99.90;;;;;;4975673;28;20045;-75
2021/08/20 02:04:45;;;;;;;24.70;18.73;;;15.00;99.90;;;;;;4975756;28;20348;-76
2021/08/20 02:07:11;;;;;;;31.10;20.27;;;15.60;99.90;;;;;;4975816;28;20099;-77
2021/08/20 02:09:36;;;;;;;24.77;18.45;;;15.00;99.90;;;;;;4975731;28;20027;-77
2021/08/20 02:12:02;;;;;;;26.73;19.85;;;15.00;99.90;;;;;;4975454;28;20489;-76
2021/08/20 02:14:27;;;;;;;32.53;20.58;;;15.00;99.90;;;;;;4975548;28;20530;-77
2021/08/20 02:16:53;;;;;;;27.98;19.38;;;15.10;99.90;;;;;;4974825;28;20031;-76
2021/08/20 02:19:19;;;;;;;25.00;18.30;;;15.20;99.90;;;;;;4975672;28;20569;-76
2021/08/20 02:21:44;;;;;;;21.70;17.95;;;15.10;99.90;;;;;;4974891;28;20054;-77
2021/08/20 02:24:10;;;;;;;25.02;18.45;;;15.20;99.90;;;;;;4974984;28;20034;-76
2021/08/20 02:26:35;;;;;;;32.63;18.05;;;15.20;99.90;;;;;;4975154;28;20125;-76
2021/08/20 02:29:01;;;;;;;22.58;17.23;;;15.20;99.90;;;;;;4975142;28;20407;-77
2021/08/20 02:31:27;;;;;;;26.90;18.38;;;15.20;99.90;;;;;;4974315;28;20031;-77
2021/08/20 02:33:52;;;;;;;23.95;17.70;;;15.30;99.90;;;;;;4975351;28;20027;-76
2021/08/20 02:36:18;;;;;;;26.92;17.65;;;15.30;99.90;;;;;;4975286;28;20106;-75
2021/08/20 02:38:44;;;;;;;25.17;17.08;;;15.30;99.90;;;;;;4973990;28;20029;-75
2021/08/20 02:41:09;;;;;;;21.95;17.85;;;15.40;99.90;;;;;;4975402;28;20078;-76
2021/08/20 02:43:35;;;;;;;23.05;17.10;;;15.40;99.90;;;;;;4974909;28;20395;-76
2021/08/20 02:46:01;;;;;;;24.08;17.10;;;15.40;99.90;;;;;;4974374;28;20015;-75
2021/08/20 02:48:27;;;;;;;27.83;18.15;;;15.40;99.90;;;;;;4974943;28;20034;-76
2021/08/20 02:50:52;;;;;;;30.20;18.17;;;15.50;99.90;;;;;;4974897;28;20467;-77
2021/08/20 02:53:18;;;;;;;26.10;17.30;;;15.50;99.90;;;;;;4975037;28;20031;-75
2021/08/20 02:55:43;;;;;;;25.90;17.02;;;15.50;99.90;;;;;;4973761;28;20423;-76
2021/08/20 02:58:09;;;;;;;26.33;16.33;;;15.50;99.90;;;;;;4974916;28;20118;-76
2021/08/20 03:00:35;;;;;;;26.08;16.67;;;15.50;99.90;;;;;;4973806;28;20118;-75
2021/08/20 03:03:01;;;;;;;23.33;17.20;;;15.50;99.90;;;;;;4974728;28;20042;-77
2021/08/20 03:05:26;;;;;;;26.38;18.63;;;15.50;99.90;;;;;;4974371;28;20450;-75
2021/08/20 03:07:52;;;;;;;24.73;18.15;;;15.50;99.90;;;;;;4974133;28;20042;-77
2021/08/20 03:10:18;;;;;;;26.50;18.42;;;15.50;99.90;;;;;;4974698;28;20023;-76
2021/08/20 03:12:44;;;;;;;30.05;18.95;;;15.50;99.90;;;;;;4974298;28;20035;-77
2021/08/20 03:15:10;;;;;;;27.00;17.75;;;15.50;99.90;;;;;;4973885;28;20030;-77
2021/08/20 03:17:36;;;;;;;27.10;18.40;;;15.60;99.90;;;;;;4974305;28;20090;-75
2021/08/20 03:20:03;;;;;;;29.27;18.80;;;15.50;99.90;;;;;;4973869;28;20023;-78
2021/08/20 03:22:28;;;;;;;33.08;19.17;;;15.50;99.90;;;;;;4974290;28;20042;-78
2021/08/20 03:24:54;;;;;;;29.35;18.50;;;15.40;99.90;;;;;;4974304;28;20023;-77
2021/08/20 03:27:19;;;;;;;29.25;19.50;;;15.30;99.90;;;;;;4973709;28;20221;-75
2021/08/20 03:29:45;;;;;;;28.92;18.88;;;15.30;99.90;;;;;;4973692;28;20157;-77
2021/08/20 03:32:11;;;;;;;32.63;19.95;;;15.20;99.90;;;;;;4974264;28;20089;-75
2021/08/20 03:34:36;;;;;;;35.15;21.15;;;15.20;99.90;;;;;;4973874;28;20022;-77
2021/08/20 03:37:02;;;;;;;30.23;19.35;;;15.20;99.90;;;;;;4974351;28;20030;-76
2021/08/20 03:39:27;;;;;;;34.42;20.65;;;15.10;99.90;;;;;;4973839;28;20038;-77
2021/08/20 03:41:53;;;;;;;28.77;19.25;;;15.10;99.90;;;;;;4973217;28;20158;-77
2021/08/20 03:44:19;;;;;;;37.83;22.98;;;15.10;99.90;;;;;;4973869;28;20534;-76
2021/08/20 03:46:44;;;;;;;38.28;21.73;;;15.20;99.90;;;;;;4973583;28;20034;-76
2021/08/20 03:49:10;;;;;;;36.65;21.85;;;15.20;99.90;;;;;;4972853;28;20396;-77
2021/08/20 03:51:36;;;;;;;34.42;21.05;;;15.20;99.90;;;;;;4973781;28;20030;-77
2021/08/20 03:54:01;;;;;;;37.03;20.60;;;15.20;99.90;;;;;;4974136;28;20029;-77
2021/08/20 03:56:27;;;;;;;31.40;19.80;;;15.20;99.90;;;;;;4972979;28;20073;-77
2021/08/20 03:58:58;;;;;;;31.08;20.73;;;15.10;99.90;;;;;;4973877;28;20045;-79
2021/08/20 04:01:24;;;;;;;37.85;22.10;;;15.10;99.90;;;;;;4973660;28;20545;-76
2021/08/20 04:03:49;;;;;;;35.47;20.88;;;15.10;99.90;;;;;;4972843;28;20115;-77
2021/08/20 04:06:15;;;;;;;36.25;20.42;;;15.10;99.90;;;;;;4973772;28;20459;-77
2021/08/20 04:08:44;;;;;;;38.30;20.63;;;15.10;99.90;;;;;;4972871;28;20492;-76
2021/08/20 04:11:13;;;;;;;36.20;19.08;;;15.10;99.90;;;;;;4972834;28;20106;-77
2021/08/20 04:13:39;;;;;;;32.90;19.95;;;15.20;99.90;;;;;;4973211;28;20023;-76
2021/08/20 04:16:05;;;;;;;30.77;19.30;;;15.20;99.90;;;;;;4972143;28;20031;-78
2021/08/20 04:18:31;;;;;;;34.78;20.45;;;15.20;99.90;;;;;;4972937;28;20027;-77
2021/08/20 04:20:56;;;;;;;32.60;19.83;;;15.20;99.90;;;;;;4973769;28;20038;-76
2021/08/20 04:23:22;;;;;;;34.50;19.27;;;15.30;99.90;;;;;;4972689;28;20117;-77
2021/08/20 04:25:47;;;;;;;32.38;19.40;;;15.30;99.90;;;;;;4973167;28;20106;-76
2021/08/20 04:28:13;;;;;;;33.85;20.23;;;15.30;99.90;;;;;;4973815;28;20133;-77
2021/08/20 04:30:39;;;;;;;39.80;21.13;;;15.30;99.90;;;;;;4972161;28;20498;-76
2021/08/20 04:33:04;;;;;;;37.85;20.98;;;15.30;99.90;;;;;;4972962;28;20027;-78
2021/08/20 04:35:30;;;;;;;41.00;21.52;;;15.30;99.90;;;;;;4973270;28;20110;-76
2021/08/20 04:37:56;;;;;;;41.03;21.70;;;15.30;99.90;;;;;;4972353;28;20110;-77
2021/08/20 04:40:22;;;;;;;40.42;20.67;;;15.30;99.90;;;;;;4973844;28;20038;-78
2021/08/20 04:42:49;;;;;;;50.33;22.48;;;15.40;99.90;;;;;;4972853;28;20113;-77
2021/08/20 04:45:16;;;;;;;55.97;23.05;;;15.40;99.90;;;;;;4972153;28;20494;-78
2021/08/20 04:47:44;;;;;;;47.45;22.23;;;15.50;99.90;;;;;;4972903;28;20039;-77
2021/08/20 04:50:11;;;;;;;44.35;21.95;;;15.50;99.90;;;;;;4973105;28;20110;-76
2021/08/20 04:52:37;;;;;;;37.88;19.40;;;15.60;99.90;;;;;;4972124;28;20031;-77
2021/08/20 04:55:03;;;;;;;40.50;20.42;;;15.60;99.90;;;;;;4973458;28;20029;-77
2021/08/20 04:57:29;;;;;;;49.30;22.52;;;15.70;99.90;;;;;;4972898;28;20031;-77
2021/08/20 04:59:55;;;;;;;38.70;20.05;;;15.70;99.90;;;;;;4972434;28;20034;-77
2021/08/20 05:02:21;;;;;;;37.63;19.42;;;15.80;99.90;;;;;;4972656;28;20035;-75
2021/08/20 05:04:46;;;;;;;43.97;20.60;;;15.80;99.90;;;;;;4973037;28;20538;-78
2021/08/20 05:07:12;;;;;;;39.03;20.58;;;15.90;99.90;;;;;;4972585;28;20027;-76
2021/08/20 05:09:38;;;;;;;41.03;19.35;;;15.90;99.90;;;;;;4972676;28;20097;-76
2021/08/20 05:12:06;;;;;;;35.70;19.50;;;16.00;99.90;;;;;;4973007;28;20030;-75
2021/08/20 05:14:31;;;;;;;37.40;19.05;;;16.10;99.90;;;;;;4971729;28;20031;-77
2021/08/20 05:17:02;;;;;;;39.40;19.48;;;16.20;99.90;;;;;;4973638;28;20463;-77
2021/08/20 05:19:27;;;;;;;32.30;18.58;;;16.20;99.90;;;;;;4973765;28;20043;-77
2021/08/20 05:21:53;;;;;;;33.78;17.77;;;16.30;99.90;;;;;;4976463;28;20085;-77
2021/08/20 05:24:19;;;;;;;38.08;17.92;;;16.30;99.90;;;;;;4976955;28;20201;-77
2021/08/20 05:26:44;;;;;;;34.60;19.38;;;16.30;99.90;;;;;;4975508;28;20481;-76
2021/08/20 05:29:10;;;;;;;32.95;17.98;;;16.40;99.90;;;;;;4976267;28;20051;-76
2021/08/20 05:31:35;;;;;;;30.17;17.60;;;16.40;99.90;;;;;;4976492;28;20039;-76
2021/08/20 05:34:01;;;;;;;30.23;18.35;;;16.40;99.90;;;;;;4975966;28;20018;-76
2021/08/20 05:36:28;;;;;;;32.47;17.73;;;16.40;99.90;;;;;;4976374;28;20037;-77
2021/08/20 05:38:53;;;;;;;36.47;18.85;;;16.50;99.90;;;;;;4976923;28;20018;-77
2021/08/20 05:41:19;;;;;;;28.90;16.40;;;16.50;99.90;;;;;;4976475;28;20045;-77
2021/08/20 05:43:44;;;;;;;30.30;16.88;;;16.50;99.90;;;;;;4976296;28;20086;-77
2021/08/20 05:46:10;;;;;;;26.80;15.80;;;16.50;99.90;;;;;;4976484;28;20122;-78
2021/08/20 05:48:36;;;;;;;27.42;16.40;;;16.60;99.90;;;;;;4975325;28;20074;-78
2021/08/20 05:51:01;;;;;;;25.90;16.42;;;16.60;99.90;;;;;;4975839;28;20015;-78
2021/08/20 05:53:27;;;;;;;27.25;16.10;;;16.60;99.90;;;;;;4975408;28;20140;-78
2021/08/20 05:55:52;;;;;;;24.25;14.20;;;16.60;99.90;;;;;;4975078;28;20019;-77
2021/08/20 05:58:18;;;;;;;23.13;14.95;;;16.70;99.90;;;;;;4975631;28;20391;-77
2021/08/20 06:00:44;;;;;;;24.60;14.32;;;16.80;99.90;;;;;;4975484;28;20455;-77
2021/08/20 06:03:09;;;;;;;24.00;14.70;;;16.80;99.90;;;;;;4974970;28;20057;-77
2021/08/20 06:05:38;;;;;;;22.40;14.10;;;16.90;99.90;;;;;;4975740;28;20072;-76
2021/08/20 06:08:03;;;;;;;19.65;14.15;;;16.90;99.90;;;;;;4975535;28;20030;-77
2021/08/20 06:10:31;;;;;;;23.13;15.13;;;17.00;99.90;;;;;;4974829;28;20027;-77
2021/08/20 06:12:56;;;;;;;23.17;15.18;;;17.00;99.90;;;;;;4975474;28;20050;-78
2021/08/20 06:15:22;;;;;;;21.70;14.35;;;17.10;99.90;;;;;;4975837;28;20058;-79
2021/08/20 06:17:48;;;;;;;20.50;13.65;;;17.10;99.90;;;;;;4974595;28;20041;-76
2021/08/20 06:20:14;;;;;;;20.77;13.80;;;17.20;99.90;;;;;;4975690;28;20030;-77
2021/08/20 06:22:39;;;;;;;18.23;13.43;;;17.20;99.90;;;;;;4975176;28;20411;-79
2021/08/20 06:25:05;;;;;;;20.33;13.75;;;17.10;99.90;;;;;;4974634;28;20050;-79
2021/08/20 06:27:31;;;;;;;22.02;14.52;;;17.20;99.90;;;;;;4973830;28;20035;-77
2021/08/20 06:30:03;;;;;;;20.90;14.23;;;17.20;99.90;;;;;;4974318;28;20479;-78
2021/08/20 06:32:29;;;;;;;26.52;15.90;;;17.30;99.90;;;;;;4975026;28;20031;-78
2021/08/20 06:34:54;;;;;;;24.17;14.32;;;17.30;99.90;;;;;;4975176;28;20026;-78
2021/08/20 06:37:20;;;;;;;22.13;14.07;;;17.30;99.90;;;;;;4974579;28;20086;-78
2021/08/20 06:39:45;;;;;;;20.42;13.40;;;17.30;99.90;;;;;;4974790;28;20514;-76
2021/08/20 06:42:11;;;;;;;23.48;14.57;;;17.30;99.90;;;;;;4974918;28;20043;-79
2021/08/20 06:44:37;;;;;;;22.67;13.93;;;17.30;99.90;;;;;;4974323;28;20037;-78
2021/08/20 06:47:02;;;;;;;22.90;13.52;;;17.40;99.90;;;;;;4974875;28;20023;-77
2021/08/20 06:49:28;;;;;;;22.55;13.90;;;17.40;99.90;;;;;;4974879;28;20027;-79
2021/08/20 06:51:53;;;;;;;19.17;13.30;;;17.40;99.90;;;;;;4974145;28;20423;-77
2021/08/20 06:54:19;;;;;;;20.33;14.82;;;17.50;99.90;;;;;;4974891;28;20049;-79
2021/08/20 06:56:46;;;;;;;22.05;14.70;;;17.60;99.90;;;;;;4974287;28;20039;-78
2021/08/20 06:59:12;;;;;;;21.25;14.93;;;17.60;99.90;;;;;;4974133;28;20361;-75
2021/08/20 07:01:37;;;;;;;21.05;15.45;;;17.80;99.90;;;;;;4974575;28;20105;-76
2021/08/20 07:04:03;;;;;;;19.30;15.65;;;17.90;99.90;;;;;;4974746;28;20031;-78
2021/08/20 07:06:29;;;;;;;23.83;14.35;;;17.90;99.90;;;;;;4974080;28;20027;-78
2021/08/20 07:08:55;;;;;;;27.02;15.98;;;18.00;99.90;;;;;;4973465;28;20117;-77
2021/08/20 07:11:22;;;;;;;17.60;13.90;;;18.10;99.90;;;;;;4974354;28;20069;-78
2021/08/20 07:13:48;;;;;;;18.33;14.45;;;18.20;99.90;;;;;;4973730;28;20035;-78
2021/08/20 07:16:14;;;;;;;19.45;16.05;;;18.30;99.90;;;;;;4974696;28;20097;-77
2021/08/20 07:18:40;;;;;;;21.05;15.20;;;18.30;99.90;;;;;;4974263;28;20493;-78
2021/08/20 07:21:06;;;;;;;20.48;14.38;;;18.20;99.90;;;;;;4973703;28;20023;-79
2021/08/20 07:23:33;;;;;;;16.65;14.65;;;18.20;99.90;;;;;;4973029;28;20035;-79
2021/08/20 07:26:03;;;;;;;23.90;15.30;;;18.20;99.90;;;;;;4974243;28;20027;-76
2021/08/20 07:28:28;;;;;;;17.98;15.15;;;18.20;99.90;;;;;;4973196;28;20030;-78
2021/08/20 07:30:55;;;;;;;23.23;15.48;;;18.30;99.90;;;;;;4974140;28;20058;-78
2021/08/20 07:33:21;;;;;;;22.10;14.50;;;18.30;99.90;;;;;;4973423;28;20030;-78
2021/08/20 07:35:46;;;;;;;21.48;15.85;;;18.40;99.90;;;;;;4974007;28;20098;-77
2021/08/20 07:38:12;;;;;;;21.23;14.82;;;18.50;99.90;;;;;;4973998;28;20027;-79
2021/08/20 07:40:38;;;;;;;18.02;14.55;;;18.50;99.90;;;;;;4973478;28;20099;-78
2021/08/20 07:43:03;;;;;;;17.05;14.82;;;18.40;99.90;;;;;;4973240;28;20053;-78
2021/08/20 07:45:29;;;;;;;20.63;14.13;;;18.50;99.90;;;;;;4973637;28;20211;-77
2021/08/20 07:47:55;;;;;;;15.57;13.98;;;18.90;99.90;;;;;;4974317;28;20027;-78
2021/08/20 07:50:21;;;;;;;17.75;13.45;;;18.50;99.90;;;;;;4975506;28;20046;-77
2021/08/20 07:52:49;;;;;;;24.52;13.75;;;18.50;99.90;;;;;;4974862;28;20071;-78
2021/08/20 07:55:17;;;;;;;18.95;14.60;;;18.50;99.90;;;;;;4972974;28;20062;-78
2021/08/20 07:57:51;;;;;;;16.45;14.25;;;18.50;99.90;;;;;;4973499;28;20478;-78
2021/08/20 08:00:25;;;;;;;17.75;12.85;;;18.60;99.90;;;;;;4973649;28;20035;-78
2021/08/20 08:02:50;;;;;;;19.80;12.10;;;18.80;99.90;;;;;;4972781;28;20039;-77
2021/08/20 08:05:16;;;;;;;17.92;12.25;;;18.90;99.90;;;;;;4973755;28;20034;-78
2021/08/20 08:07:42;;;;;;;14.23;11.70;;;19.10;99.90;;;;;;4973487;28;20031;-79
2021/08/20 08:10:08;;;;;;;15.07;10.90;;;19.30;99.90;;;;;;4972977;28;20062;-77
2021/08/20 08:12:34;;;;;;;14.63;10.32;;;19.50;99.90;;;;;;4973201;28;20023;-77
2021/08/20 08:14:59;;;;;;;12.90;11.57;;;19.70;99.90;;;;;;4973689;28;20503;-78
2021/08/20 08:17:25;;;;;;;11.82;10.60;;;19.90;99.90;;;;;;4972911;28;20387;-76
2021/08/20 08:19:51;;;;;;;12.07;10.80;;;19.90;99.90;;;;;;4973044;28;20072;-78
2021/08/20 08:22:17;;;;;;;15.30;12.63;;;20.00;99.90;;;;;;4973655;28;20126;-79
2021/08/20 08:24:43;;;;;;;14.55;12.05;;;19.90;99.90;;;;;;4972459;28;20023;-77
2021/08/20 08:27:08;;;;;;;12.68;11.02;;;19.80;99.90;;;;;;4973364;28;20030;-77
2021/08/20 08:29:34;;;;;;;14.68;11.30;;;19.70;99.90;;;;;;4972331;28;20046;-78
2021/08/20 08:32:00;;;;;;;13.50;11.13;;;19.70;99.90;;;;;;4973360;28;20033;-78
2021/08/20 08:34:25;;;;;;;13.23;11.82;;;19.60;99.90;;;;;;4973195;28;20023;-77
2021/08/20 08:36:51;;;;;;;11.70;10.60;;;19.70;99.90;;;;;;4971993;28;20030;-77
2021/08/20 08:39:16;;;;;;;12.50;11.20;;;19.60;99.90;;;;;;4973253;28;20023;-78
2021/08/20 08:41:42;;;;;;;14.25;11.90;;;19.60;99.90;;;;;;4972686;28;20031;-77
2021/08/20 08:44:07;;;;;;;13.95;11.75;;;19.60;99.90;;;;;;4972442;28;20035;-78
2021/08/20 08:46:37;;;;;;;12.15;10.93;;;19.60;99.90;;;;;;4972546;28;20038;-78
2021/08/20 08:49:06;;;;;;;16.50;11.27;;;19.70;99.90;;;;;;4973018;28;20045;-77
2021/08/20 08:51:32;;;;;;;11.65;10.45;;;19.70;99.90;;;;;;4972558;28;20042;-77
2021/08/20 08:53:59;;;;;;;11.40;10.13;;;19.80;99.90;;;;;;4974926;28;20023;-79
2021/08/20 08:56:24;;;;;;;12.20;9.82;;;19.80;99.90;;;;;;4977237;28;20031;-79
2021/08/20 08:58:50;;;;;;;11.88;9.48;;;19.90;99.90;;;;;;4975940;28;20025;-78
2021/08/20 09:01:30;;;;;;;9.65;8.85;;;19.90;99.90;;;;;;4976902;28;20387;-76
2021/08/20 09:04:16;;;;;;;12.32;9.32;;;19.90;99.90;;;;;;4977105;28;20047;-79
2021/08/20 09:06:44;;;;;;;11.77;7.55;;;19.80;99.90;;;;;;4964988;28;20434;-77
2021/08/20 09:09:14;;;;;;;8.80;7.65;;;19.80;99.90;;;;;;4976727;28;20545;-79
2021/08/20 09:11:41;;;;;;;10.40;6.90;;;20.00;99.90;;;;;;4975917;28;20113;-78
2021/08/20 09:14:08;;;;;;;6.45;5.78;;;20.00;99.90;;;;;;4976712;28;20030;-79
2021/08/20 09:16:42;;;;;;;6.10;5.32;;;20.20;99.90;;;;;;4976355;28;20026;-79
2021/08/20 09:19:16;;;;;;;6.63;4.72;;;20.30;99.90;;;;;;4976046;28;20027;-77
2021/08/20 09:21:46;;;;;;;8.27;4.68;;;20.50;99.90;;;;;;4976420;28;20050;-78
2021/08/20 09:24:40;;;;;;;6.40;4.65;;;20.60;99.90;;;;;;4976459;28;20506;-78
2021/08/20 09:27:18;;;;;;;7.00;5.13;;;20.80;99.90;;;;;;4964672;28;20545;-78
2021/08/20 09:30:07;;;;;;;4.55;4.03;;;20.80;99.90;;;;;;4978137;28;20054;-77
2021/08/20 09:32:41;;;;;;;5.63;4.18;;;20.80;99.90;;;;;;4977154;28;20022;-79
2021/08/20 09:35:07;;;;;;;5.80;4.22;;;20.80;99.90;;;;;;4975841;28;20455;-77
2021/08/20 09:37:32;;;;;;;5.43;4.32;;;20.80;99.90;;;;;;4976559;28;20120;-78
2021/08/20 09:40:03;;;;;;;8.77;4.93;;;21.00;99.90;;;;;;4976045;28;20150;-79
2021/08/20 09:42:28;;;;;;;8.93;5.55;;;21.20;99.90;;;;;;4976050;28;20518;-79
2021/08/20 09:45:29;;;;;;;8.30;5.40;;;21.50;99.90;;;;;;4976162;28;20030;-79
2021/08/20 09:47:56;;;;;;;6.05;4.63;;;21.70;99.90;;;;;;4992689;28;20185;-78
2021/08/20 09:50:38;;;;;;;8.82;5.32;;;21.70;99.90;;;;;;4979781;28;20038;-78
2021/08/20 09:53:15;;;;;;;4.95;4.50;;;21.60;99.90;;;;;;4975979;28;20030;-79
2021/08/20 09:55:42;;;;;;;9.35;5.55;;;21.50;99.90;;;;;;4974932;28;20026;-78
2021/08/20 09:58:11;;;;;;;7.85;5.63;;;21.40;99.90;;;;;;4976054;28;20038;-79
2021/08/20 10:00:37;;;;;;;5.07;4.57;;;21.40;99.90;;;;;;4975566;28;20019;-78
2021/08/20 10:03:06;;;;;;;5.72;3.67;;;21.50;99.90;;;;;;4975273;28;20117;-78
2021/08/20 10:05:33;;;;;;;4.50;4.10;;;21.40;99.90;;;;;;4975070;28;20022;-79
2021/08/20 10:08:01;;;;;;;5.97;5.38;;;21.40;99.90;;;;;;4975038;28;20495;-78
2021/08/20 10:10:30;;;;;;;6.03;5.40;;;21.30;99.90;;;;;;4975657;28;20368;-78
2021/08/20 10:12:57;;;;;;;7.15;6.07;;;21.40;99.90;;;;;;4975677;28;20078;-78
2021/08/20 10:15:24;;;;;;;9.48;7.40;;;21.50;99.90;;;;;;4975183;28;20033;-78
2021/08/20 10:17:49;;;;;;;7.65;6.30;;;21.60;99.90;;;;;;4976361;28;20372;-77
2021/08/20 10:20:15;;;;;;;5.65;5.22;;;21.70;99.90;;;;;;4976588;28;20113;-78
2021/08/20 10:22:44;;;;;;;5.20;4.80;;;21.80;99.90;;;;;;4975257;28;20115;-77
2021/08/20 10:25:10;;;;;;;9.30;6.20;;;21.90;99.90;;;;;;4975479;28;20027;-76
2021/08/20 10:27:37;;;;;;;5.82;5.22;;;21.90;99.90;;;;;;4975262;28;20501;-78
2021/08/20 10:30:05;;;;;;;5.18;4.53;;;21.90;99.90;;;;;;4974503;28;20051;-77
2021/08/20 10:32:31;;;;;;;5.28;4.78;;;22.00;99.90;;;;;;4974988;28;20027;-77
2021/08/20 10:34:56;;;;;;;6.30;5.70;;;22.10;99.90;;;;;;4975117;28;20023;-77
2021/08/20 10:37:30;;;;;;;6.88;6.07;;;22.20;99.90;;;;;;4974581;28;20387;-78
2021/08/20 10:40:00;;;;;;;6.80;6.10;;;22.30;99.90;;;;;;4974988;28;20023;-78
2021/08/20 10:42:40;;;;;;;6.43;5.68;;;22.50;99.90;;;;;;4975177;28;20038;-78
2021/08/20 10:45:08;;;;;;;8.40;4.50;;;22.70;99.90;;;;;;4974418;28;20054;-79
2021/08/20 10:47:34;;;;;;;5.38;4.32;;;22.90;99.90;;;;;;4974616;28;20031;-78
2021/08/20 10:50:18;;;;;;;9.38;5.43;;;23.00;99.90;;;;;;4974879;28;20038;-79
2021/08/20 10:52:45;;;;;;;7.25;6.40;;;23.10;99.90;;;;;;4974919;28;20357;-76
2021/08/20 10:55:21;;;;;;;6.90;6.20;;;23.00;99.90;;;;;;4974983;28;20035;-76
2021/08/20 10:57:59;;;;;;;9.32;5.72;;;22.90;99.90;;;;;;4972758;28;20026;-77
2021/08/20 11:00:28;;;;;;;7.05;6.40;;;22.60;99.90;;;;;;4974510;28;20026;-79
2021/08/20 11:02:59;;;;;;;8.43;6.43;;;22.40;99.90;;;;;;4974472;28;20538;-78
2021/08/20 11:05:40;;;;;;;6.07;5.57;;;22.30;99.90;;;;;;4974086;28;20046;-79
2021/08/20 11:08:28;;;;;;;8.35;5.75;;;22.30;99.90;;;;;;4974763;28;20049;-79
2021/08/20 11:10:58;;;;;;;6.28;5.20;;;22.40;99.90;;;;;;4974909;28;20368;-79
2021/08/20 11:13:25;;;;;;;5.68;4.60;;;22.50;99.90;;;;;;4974239;28;20031;-80
2021/08/20 11:15:53;;;;;;;5.85;5.05;;;22.70;99.90;;;;;;4974364;28;20035;-78
2021/08/20 11:18:50;;;;;;;6.13;5.53;;;22.70;99.90;;;;;;4973650;28;20098;-78
2021/08/20 11:21:40;;;;;;;6.47;5.88;;;22.80;99.90;;;;;;4973847;28;20050;-82
2021/08/20 11:24:11;;;;;;;6.38;5.18;;;23.00;99.90;;;;;;4966062;28;20109;-80
2021/08/20 11:26:37;;;;;;;5.75;4.13;;;23.10;99.90;;;;;;4972149;28;20030;-80
2021/08/20 11:29:02;;;;;;;5.60;3.90;;;23.20;99.90;;;;;;4972455;28;20105;-79
2021/08/20 11:31:28;;;;;;;5.68;2.90;;;23.30;99.90;;;;;;4973629;28;20117;-78
2021/08/20 11:33:54;;;;;;;5.78;3.15;;;23.30;99.90;;;;;;4973958;28;20066;-79
2021/08/20 11:36:21;;;;;;;4.32;3.20;;;23.40;99.90;;;;;;4978008;28;20034;-80
2021/08/20 11:39:01;;;;;;;6.13;4.78;;;23.50;99.90;;;;;;5094332;27;1207173;-80
2021/08/20 11:41:55;;;;;;;5.90;5.30;;;23.50;99.90;;;;;;5095593;28;20422;-80
2021/08/20 11:44:16;;;;;;;6.05;5.55;;;23.60;99.90;;;;;;5111929;28;20024;-81
2021/08/20 11:46:44;;;;;;;5.72;5.25;;;23.60;99.90;;;;;;5099474;28;20090;-80
2021/08/20 11:49:11;;;;;;;6.55;5.07;;;23.60;99.90;;;;;;5096441;28;20051;-79
2021/08/20 11:51:39;;;;;;;5.38;4.88;;;23.70;99.90;;;;;;5093529;28;20499;-80
2021/08/20 11:54:12;;;;;;;5.40;4.90;;;23.80;99.90;;;;;;5107661;28;20107;-80
2021/08/20 11:56:52;;;;;;;5.68;5.18;;;23.90;99.90;;;;;;5089225;28;20414;-81
2021/08/20 11:59:18;;;;;;;5.57;5.07;;;24.00;99.90;;;;;;5097156;28;20062;-80
2021/08/20 12:01:44;;;;;;;5.53;5.03;;;24.10;99.90;;;;;;5095232;28;20068;-81
2021/08/20 12:04:10;;;;;;;5.68;5.18;;;24.30;99.90;;;;;;5091129;28;20460;-81
2021/08/20 12:06:38;;;;;;;6.53;5.10;;;24.40;99.90;;;;;;5109596;28;20077;-80
2021/08/20 12:09:11;;;;;;;6.30;5.20;;;24.60;99.90;;;;;;5109079;28;20107;-80
2021/08/20 12:11:38;;;;;;;5.43;4.60;;;24.90;99.90;;;;;;5089804;28;20020;-81
2021/08/20 12:14:03;;;;;;;8.40;5.32;;;25.10;99.90;;;;;;5089342;28;20074;-81
2021/08/20 12:16:39;;;;;;;5.72;5.03;;;25.20;99.90;;;;;;5093096;28;20019;-80
2021/08/20 12:19:19;;;;;;;6.13;5.55;;;25.40;99.90;;;;;;5097029;28;20028;-81
2021/08/20 12:21:48;;;;;;;5.68;4.57;;;25.50;99.90;;;;;;5088262;28;20431;-81
2021/08/20 12:24:16;;;;;;;6.57;6.00;;;25.50;99.90;;;;;;5102751;28;20127;-79
2021/08/20 12:26:42;;;;;;;5.65;5.03;;;25.70;99.90;;;;;;5089673;28;20021;-81
2021/08/20 12:29:13;;;;;;;6.57;5.75;;;25.80;99.90;;;;;;5088138;28;20512;-81
2021/08/20 12:31:39;;;;;;;9.55;5.90;;;25.80;99.90;;;;;;5088574;28;20024;-80
2021/08/20 12:34:06;;;;;;;6.18;5.53;;;26.00;99.90;;;;;;5088962;28;20593;-80